Time;durP1;ratioP1;P1;durP2;ratioP2;P2;SDS_P1;SDS_P2;PMS_P1;PMS_P2;Temp;Humidity;BMP_temperature;BMP_pressure;BME280_temperature;BME280_humidity;BME280_pressure;Samples;Min_cycle;Max_cycle;Signal;HPM_P1;HPM_P2
2022/05/26 00:01:17;;;;;;;3.72;3.27;;;;;;;9.99;66.97;100807.66;1631962;86;20865;-80
2022/05/26 00:03:47;;;;;;;3.80;3.42;;;;;;;9.94;67.11;100798.67;1659924;86;20937;-79
2022/05/26 00:06:17;;;;;;;3.62;2.90;;;;;;;9.94;67.18;100802.98;1639571;86;20934;-80
2022/05/26 00:08:44;;;;;;;4.10;3.05;;;;;;;9.91;67.17;100802.57;1659893;86;20994;-80
2022/05/26 00:11:14;;;;;;;;;;;;;;;9.89;67.21;100801.73;1621408;86;20931;-79
2022/05/26 00:13:42;;;;;;;2.42;2.22;;;;;;;9.87;67.59;100802.22;1621880;86;20150;-78
2022/05/26 00:16:09;;;;;;;3.60;3.17;;;;;;;9.86;67.33;100808.25;1643984;87;20937;-78
2022/05/26 00:18:35;;;;;;;4.60;3.08;;;;;;;9.85;67.30;100805.69;1660150;86;20940;-80
2022/05/26 00:21:02;;;;;;;2.50;2.30;;;;;;;9.83;67.36;100812.16;1619663;87;20952;-78
2022/05/26 00:23:28;;;;;;;3.72;2.90;;;;;;;9.84;67.40;100811.72;1649634;86;20922;-80
2022/05/26 00:25:54;;;;;;;3.27;2.97;;;;;;;9.84;67.42;100810.42;1659873;86;21667;-80
2022/05/26 00:28:21;;;;;;;3.15;2.72;;;;;;;9.81;67.46;100808.73;1645218;86;21056;-80
2022/05/26 00:30:48;;;;;;;4.17;3.77;;;;;;;9.81;67.47;100808.73;1652615;85;20945;-78
2022/05/26 00:33:16;;;;;;;3.98;3.27;;;;;;;9.80;67.57;100810.89;1662378;86;21057;-79
2022/05/26 00:35:42;;;;;;;3.15;2.65;;;;;;;9.81;67.61;100807.44;1655410;84;21123;-80
2022/05/26 00:38:11;;;;;;;5.17;3.07;;;;;;;9.81;67.55;100815.63;1625647;85;21107;-80
2022/05/26 00:40:39;;;;;;;5.28;3.80;;;;;;;9.79;67.60;100815.64;1623698;86;21073;-80
2022/05/26 00:43:06;;;;;;;4.12;3.72;;;;;;;9.77;67.72;100816.09;1649145;86;21098;-80
2022/05/26 00:45:59;;;;;;;4.37;3.52;;;;;;;9.79;67.71;100810.47;1647335;85;21083;-79
2022/05/26 00:48:30;;;;;;;3.75;3.40;;;;;;;9.76;67.73;100813.09;1648089;85;21579;-79
2022/05/26 00:51:04;;;;;;;4.05;3.30;;;;;;;9.75;67.83;100811.80;1657786;86;21170;-78
2022/05/26 00:53:44;;;;;;;4.92;3.92;;;;;;;9.76;67.84;100813.09;1642033;85;20935;-78
2022/05/26 00:56:22;;;;;;;4.25;3.83;;;;;;;9.77;67.91;100817.38;1617790;87;21044;-81
2022/05/26 00:58:55;;;;;;;5.00;4.00;;;;;;;9.77;67.91;100820.39;1639684;86;21145;-79
2022/05/26 01:01:22;;;;;;;4.22;3.90;;;;;;;9.78;68.02;100809.20;1654086;86;21045;-79
2022/05/26 01:03:59;;;;;;;5.17;3.85;;;;;;;9.78;67.99;100810.48;1662060;85;21037;-79
2022/05/26 01:06:37;;;;;;;5.55;3.58;;;;;;;9.78;68.06;100810.05;1645560;86;21088;-78
2022/05/26 01:09:05;;;;;;;5.80;3.30;;;;;;;9.81;68.10;100812.61;1653931;85;20905;-80
2022/05/26 01:11:38;;;;;;;3.35;3.10;;;;;;;9.83;68.14;100802.26;1658971;86;20871;-78
2022/05/26 01:14:18;;;;;;;4.33;3.42;;;;;;;9.84;68.18;100804.83;1648912;86;20918;-80
2022/05/26 01:17:05;;;;;;;3.75;3.17;;;;;;;9.87;68.24;100802.22;1654753;84;20953;-81
2022/05/26 01:20:07;;;;;;;3.50;3.20;;;;;;;9.92;68.30;100807.30;1641349;86;20941;-80
2022/05/26 01:23:16;;;;;;;3.50;3.20;;;;;;;9.96;68.41;100808.55;1661636;85;20906;-81
2022/05/26 01:26:14;;;;;;;5.08;3.65;;;;;;;10.03;68.42;100809.34;1660873;86;20938;-79
2022/05/26 01:29:20;;;;;;;4.12;3.83;;;;;;;10.09;68.52;100806.69;1649171;86;20938;-79
2022/05/26 01:32:10;;;;;;;4.47;4.03;;;;;;;10.16;68.55;100805.75;1659572;86;20897;-79
2022/05/26 01:35:31;;;;;;;5.03;4.37;;;;;;;10.23;68.58;100803.98;1624425;86;20924;-78
2022/05/26 01:38:34;;;;;;;5.28;4.78;;;;;;;10.27;68.67;100806.95;1657552;86;21752;-80
2022/05/26 01:41:32;;;;;;;5.58;4.78;;;;;;;10.34;68.70;100803.86;1639897;86;20884;-79
2022/05/26 01:44:18;;;;;;;5.65;4.03;;;;;;;10.38;68.69;100797.78;1620878;88;20908;-81
2022/05/26 01:46:45;;;;;;;;;;;;;;;10.40;68.72;100793.45;1656396;85;20917;-81
2022/05/26 01:49:38;;;;;;;4.55;3.92;;;;;;;10.40;69.03;100790.40;1651021;84;20148;-82
2022/05/26 01:52:27;;;;;;;4.17;3.75;;;;;;;10.38;68.72;100797.34;1642767;86;20921;-80
2022/05/26 01:55:00;;;;;;;4.37;3.98;;;;;;;10.34;68.75;100791.80;1646301;86;20929;-81
2022/05/26 01:57:46;;;;;;;5.67;4.37;;;;;;;10.32;68.83;100784.94;1640944;85;20937;-81
2022/05/26 02:00:16;;;;;;;4.83;3.87;;;;;;;10.31;68.90;100783.22;1626315;88;20949;-78
2022/05/26 02:02:56;;;;;;;6.25;5.22;;;;;;;10.31;68.93;100777.62;1624460;88;21001;-81
2022/05/26 02:05:27;;;;;;;5.20;4.80;;;;;;;10.30;68.95;100779.78;1602006;88;21479;-81
2022/05/26 02:08:07;;;;;;;6.08;4.67;;;;;;;10.29;68.94;100781.95;1613178;88;21130;-81
2022/05/26 02:10:45;;;;;;;5.00;4.12;;;;;;;10.27;69.00;100780.67;1607671;88;21139;-79
2022/05/26 02:13:33;;;;;;;4.45;4.05;;;;;;;10.26;69.04;100778.11;1609611;88;21621;-80
2022/05/26 02:16:28;;;;;;;7.55;4.92;;;;;;;10.23;68.97;100779.44;1621355;88;21628;-80
2022/05/26 02:19:03;;;;;;;5.47;4.53;;;;;;;10.20;69.03;100780.33;1600670;88;21112;-80
2022/05/26 02:21:44;;;;;;;8.30;4.75;;;;;;;10.18;69.14;100771.70;1623564;86;22082;-79
2022/05/26 02:24:28;;;;;;;5.30;4.83;;;;;;;10.16;69.09;100776.04;1614844;87;21460;-78
2022/05/26 02:26:54;;;;;;;3.95;3.62;;;;;;;10.15;69.15;100777.34;1611159;88;21126;-78
2022/05/26 02:32:08;;;;;;;5.85;4.25;;;;;;;10.10;69.26;100777.84;1619108;87;21439;-78
2022/05/26 02:34:35;;;;;;;5.22;4.72;;;;;;;10.10;69.25;100777.40;1617386;86;21365;-78
2022/05/26 02:37:02;;;;;;;;;;;;;;;10.07;69.21;100779.16;1665404;86;21396;-78
2022/05/26 02:39:28;;;;;;;8.30;4.95;;;;;;;10.06;69.52;100782.18;1623669;87;20325;-77
2022/05/26 02:41:57;;;;;;;7.53;5.40;;;;;;;10.05;69.31;100780.91;1662346;86;21365;-77
2022/05/26 02:44:29;;;;;;;4.53;4.08;;;;;;;10.05;69.34;100782.20;1646940;85;21052;-77
2022/05/26 02:47:10;;;;;;;6.75;4.80;;;;;;;10.06;69.33;100780.03;1646880;85;20988;-78
2022/05/26 02:49:58;;;;;;;6.05;5.47;;;;;;;10.05;69.37;100788.66;1643884;86;20944;-78
2022/05/26 02:52:50;;;;;;;5.72;5.17;;;;;;;10.08;69.50;100783.02;1647349;87;20948;-78
2022/05/26 02:55:33;;;;;;;5.30;4.65;;;;;;;10.12;69.49;100783.84;1621037;87;21029;-78
2022/05/26 02:58:42;;;;;;;6.83;5.03;;;;;;;10.16;69.57;100772.16;1623259;86;21122;-78
2022/05/26 03:01:26;;;;;;;5.80;5.10;;;;;;;10.21;69.59;100774.29;1662444;86;20983;-77
2022/05/26 03:04:14;;;;;;;6.35;5.55;;;;;;;10.30;69.69;100775.05;1656346;86;20946;-79
2022/05/26 03:06:46;;;;;;;6.92;5.42;;;;;;;10.38;69.75;100774.08;1609730;88;20957;-78
2022/05/26 03:09:14;;;;;;;5.53;5.03;;;;;;;10.44;69.80;100768.80;1656206;86;20906;-78
2022/05/26 03:11:54;;;;;;;9.33;5.53;;;;;;;10.49;69.82;100772.19;1664268;86;20990;-78
2022/05/26 03:14:22;;;;;;;5.40;4.87;;;;;;;10.56;69.88;100767.35;1660588;85;20906;-78
2022/05/26 03:16:48;;;;;;;5.20;4.17;;;;;;;10.64;69.90;100764.66;1644183;86;26339;-78
2022/05/26 03:19:15;;;;;;;5.33;4.83;;;;;;;10.70;69.96;100768.46;1661585;86;21427;-78
2022/05/26 03:21:41;;;;;;;;;;;;;;;10.75;69.94;100765.81;1629522;87;20998;-78
2022/05/26 03:24:09;;;;;;;5.17;4.28;;;;;;;10.79;70.30;100764.45;1610242;86;20173;-78
2022/05/26 03:26:36;;;;;;;4.70;4.30;;;;;;;10.85;70.04;100766.95;1600636;89;21005;-78
2022/05/26 03:29:03;;;;;;;5.97;4.55;;;;;;;10.92;70.04;100764.66;1626889;88;21081;-78
2022/05/26 03:31:30;;;;;;;4.40;4.00;;;;;;;10.98;70.09;100766.30;1624952;87;21022;-78
2022/05/26 03:42:16;;;;;;;4.03;3.62;;;;;;;11.27;70.23;100767.14;1627902;88;20930;-78
2022/05/26 03:44:43;;;;;;;4.47;3.90;;;;;;;11.36;70.26;100762.25;1612156;86;21520;-78
2022/05/26 03:47:09;;;;;;;4.20;3.70;;;;;;;11.43;70.27;100756.09;1617782;87;20983;-79
2022/05/26 03:49:35;;;;;;;5.95;3.92;;;;;;;11.49;70.30;100763.28;1607264;88;20938;-78
2022/05/26 03:52:02;;;;;;;4.20;3.80;;;;;;;11.56;70.33;100759.70;1626432;88;20918;-79
2022/05/26 03:54:30;;;;;;;4.80;3.40;;;;;;;11.64;70.38;100767.78;1612323;88;20907;-78
2022/05/26 03:56:57;;;;;;;4.83;3.15;;;;;;;11.73;70.41;100767.17;1611540;88;20949;-79
2022/05/26 03:59:23;;;;;;;3.97;3.67;;;;;;;11.81;70.42;100770.95;1613739;87;20945;-79
2022/05/26 04:01:50;;;;;;;3.60;3.27;;;;;;;11.91;70.44;100766.87;1607744;88;20965;-79
2022/05/26 04:04:18;;;;;;;3.72;3.42;;;;;;;11.98;70.48;100765.42;1610702;89;20973;-79
2022/05/26 04:06:44;;;;;;;5.20;3.03;;;;;;;12.06;70.48;100766.98;1591770;88;20905;-79
2022/05/26 04:09:10;;;;;;;3.40;3.10;;;;;;;12.14;70.48;100762.95;1613418;88;21859;-79
2022/05/26 04:11:36;;;;;;;5.43;3.07;;;;;;;12.22;70.46;100758.02;1614064;87;20965;-79
2022/05/26 04:14:02;;;;;;;3.87;3.03;;;;;;;12.28;70.55;100763.52;1621854;87;20893;-79
2022/05/26 04:16:28;;;;;;;3.70;3.30;;;;;;;12.36;70.56;100759.48;1626939;86;21323;-78
2022/05/26 04:18:57;;;;;;;4.03;3.02;;;;;;;12.43;70.59;100756.72;1628681;88;20973;-78
2022/05/26 04:21:23;;;;;;;3.33;3.03;;;;;;;12.54;70.65;100761.65;1639896;86;21059;-78
2022/05/26 04:23:49;;;;;;;3.40;3.10;;;;;;;12.66;70.64;100756.64;1688626;84;20882;-78
2022/05/26 04:26:15;;;;;;;4.47;2.77;;;;;;;12.75;70.66;100755.14;1688638;84;20868;-78
2022/05/26 04:28:41;;;;;;;3.10;2.83;;;;;;;12.86;70.69;100759.20;1682585;84;20953;-78
2022/05/26 04:31:07;;;;;;;4.13;3.00;;;;;;;12.99;70.75;100755.02;1688582;84;20972;-78
2022/05/26 04:33:33;;;;;;;4.67;2.80;;;;;;;13.13;70.73;100755.07;1687309;84;20941;-78
2022/05/26 04:36:03;;;;;;;2.42;2.30;;;;;;;13.27;70.76;100748.72;1675553;84;26310;-78
2022/05/26 04:38:30;;;;;;;2.65;2.45;;;;;;;13.38;70.78;100746.71;1678907;84;20956;-78
2022/05/26 04:41:03;;;;;;;2.65;2.42;;;;;;;13.51;70.76;100754.59;1662662;84;20949;-78
2022/05/26 04:43:31;;;;;;;5.42;2.58;;;;;;;13.61;70.74;100749.54;1677849;83;20985;-78
2022/05/26 04:45:58;;;;;;;5.53;2.40;;;;;;;13.71;70.71;100752.75;1682485;85;20888;-78
2022/05/26 04:48:24;;;;;;;2.80;2.60;;;;;;;13.76;70.69;100750.44;1657537;85;20935;-78
2022/05/26 04:50:52;;;;;;;3.87;2.33;;;;;;;13.81;70.64;100759.41;1688985;83;20917;-78
2022/05/26 04:53:19;;;;;;;2.37;2.08;;;;;;;13.86;70.68;100753.19;1688561;84;20886;-78
2022/05/26 04:55:46;;;;;;;4.58;2.67;;;;;;;13.91;70.66;100757.82;1660025;85;20986;-79
2022/05/26 04:58:12;;;;;;;2.27;2.05;;;;;;;13.89;70.54;100762.20;1687551;83;20964;-78
2022/05/26 05:00:40;;;;;;;3.00;2.12;;;;;;;13.89;70.63;100758.31;1687637;84;20925;-79
2022/05/26 05:03:06;;;;;;;2.58;2.05;;;;;;;13.92;70.62;100762.58;1684513;84;22116;-78
2022/05/26 05:05:33;;;;;;;5.70;2.20;;;;;;;13.94;70.64;100761.23;1679033;84;21012;-78
2022/05/26 05:07:58;;;;;;;3.37;2.50;;;;;;;13.97;70.63;100768.95;1682005;84;21970;-79
2022/05/26 05:10:25;;;;;;;2.50;2.30;;;;;;;13.99;70.58;100769.76;1689574;83;21625;-79
2022/05/26 05:12:51;;;;;;;2.72;2.02;;;;;;;14.00;70.57;100771.02;1690158;83;20928;-79
2022/05/26 05:15:22;;;;;;;3.67;2.62;;;;;;;14.02;70.55;100760.58;1686128;84;20913;-78
2022/05/26 05:17:49;;;;;;;5.95;2.10;;;;;;;14.03;70.51;100763.13;1649679;85;20903;-78
2022/05/26 05:20:15;;;;;;;2.60;2.40;;;;;;;14.07;70.55;100767.77;1658210;86;21373;-78
2022/05/26 05:22:49;;;;;;;2.30;2.10;;;;;;;14.10;70.54;100767.23;1664841;84;21982;-78
2022/05/26 05:25:19;;;;;;;2.95;2.00;;;;;;;14.18;70.51;100774.83;1647668;85;21312;-78
2022/05/26 05:27:59;;;;;;;3.02;2.02;;;;;;;14.21;70.51;100776.89;1660175;85;20877;-79
2022/05/26 05:30:39;;;;;;;2.87;2.15;;;;;;;14.27;70.50;100771.11;1644417;85;20942;-78
2022/05/26 05:33:15;;;;;;;3.92;1.90;;;;;;;14.38;70.56;100768.61;1658175;85;20929;-78
2022/05/26 05:35:52;;;;;;;4.50;2.15;;;;;;;14.50;70.49;100777.39;1658746;85;20890;-76
2022/05/26 05:38:20;;;;;;;3.15;2.25;;;;;;;14.62;70.48;100776.14;1644150;85;21080;-78
2022/05/26 05:40:47;;;;;;;2.80;2.08;;;;;;;14.71;70.40;100775.02;1647438;86;21597;-77
2022/05/26 05:43:13;;;;;;;2.47;2.08;;;;;;;14.78;70.35;100780.44;1644861;85;21551;-76
2022/05/26 05:45:39;;;;;;;2.22;2.02;;;;;;;14.85;70.36;100780.66;1646918;85;21378;-77
2022/05/26 05:48:08;;;;;;;2.20;1.77;;;;;;;14.94;70.33;100778.22;1652382;85;21043;-79
2022/05/26 05:50:34;;;;;;;6.08;1.90;;;;;;;15.02;70.28;100781.44;1652682;85;21541;-77
2022/05/26 05:53:01;;;;;;;;;;;;;;;15.04;70.22;100773.97;1653051;85;21594;-77
2022/05/26 05:55:31;;;;;;;2.30;1.60;;;;;;;15.07;69.90;100784.30;1619905;87;20469;-77
2022/05/26 05:57:57;;;;;;;2.50;1.40;;;;;;;15.05;70.02;100778.73;1593632;87;21231;-77
2022/05/26 06:00:23;;;;;;;3.30;1.73;;;;;;;15.02;69.96;100780.13;1607252;87;21126;-77
2022/05/26 06:02:49;;;;;;;2.92;2.02;;;;;;;15.02;69.92;100778.38;1623494;87;21095;-77
2022/05/26 06:05:15;;;;;;;1.53;1.40;;;;;;;15.04;69.92;100783.09;1614457;87;23420;-77
2022/05/26 06:07:42;;;;;;;2.83;1.60;;;;;;;15.12;69.91;100781.51;1605972;87;21080;-77
2022/05/26 06:10:11;;;;;;;3.60;2.27;;;;;;;15.27;69.94;100779.72;1617530;87;21570;-77
2022/05/26 06:12:38;;;;;;;7.08;2.30;;;;;;;15.44;69.84;100783.08;1599965;89;21088;-77
2022/05/26 06:15:06;;;;;;;4.25;2.10;;;;;;;15.56;69.74;100778.75;1613959;88;21031;-77
2022/05/26 06:17:32;;;;;;;4.00;2.35;;;;;;;15.66;69.65;100782.75;1608658;87;20927;-77
2022/05/26 06:19:58;;;;;;;3.22;1.30;;;;;;;15.78;69.64;100786.25;1611174;88;21948;-78
2022/05/26 06:22:25;;;;;;;1.50;1.20;;;;;;;15.91;69.55;100785.37;1641826;86;21560;-78
2022/05/26 06:24:51;;;;;;;1.60;1.33;;;;;;;16.06;69.50;100786.58;1649553;84;24049;-78
2022/05/26 06:30:11;;;;;;;4.55;1.20;;;;;;;16.19;69.29;100776.07;1619751;88;21150;-78
2022/05/26 06:38:20;;;;;;;1.52;0.98;;;;;;;16.28;68.95;100781.41;1663017;86;21424;-78
2022/05/26 06:40:47;;;;;;;2.40;1.47;;;;;;;16.30;68.91;100780.45;1655876;86;21078;-78
2022/05/26 06:43:14;;;;;;;;;;;;;;;16.33;68.86;100779.03;1637743;86;21575;-78
2022/05/26 06:45:45;;;;;;;1.85;0.88;;;;;;;16.34;68.31;100769.44;1625176;86;20482;-78
2022/05/26 06:48:11;;;;;;;1.95;1.17;;;;;;;16.41;68.70;100772.22;1644922;85;21559;-78
2022/05/26 06:50:39;;;;;;;1.52;1.05;;;;;;;16.45;68.60;100777.72;1662165;85;28683;-78
2022/05/26 06:53:08;;;;;;;1.45;0.93;;;;;;;16.47;68.48;100778.52;1661973;86;21330;-78
2022/05/26 06:55:35;;;;;;;2.83;0.98;;;;;;;16.49;68.39;100776.25;1637425;87;21544;-78
2022/05/26 06:58:01;;;;;;;1.87;1.10;;;;;;;16.47;68.24;100785.89;1645901;85;20932;-78
2022/05/26 07:00:27;;;;;;;1.52;1.10;;;;;;;16.49;68.11;100781.92;1647733;86;20953;-78
2022/05/26 07:02:54;;;;;;;3.17;1.23;;;;;;;16.49;68.12;100782.77;1646575;86;20920;-77
2022/05/26 07:05:20;;;;;;;2.00;1.20;;;;;;;16.54;68.07;100785.21;1630324;85;20944;-77
2022/05/26 07:07:46;;;;;;;1.10;1.00;;;;;;;16.59;67.98;100780.67;1647610;86;21548;-77
2022/05/26 07:10:13;;;;;;;4.27;1.10;;;;;;;16.63;67.83;100779.64;1635308;86;20973;-77
2022/05/26 07:12:43;;;;;;;1.90;1.10;;;;;;;16.69;67.76;100787.23;1641318;86;21649;-77
2022/05/26 07:15:10;;;;;;;1.60;1.50;;;;;;;16.76;67.70;100781.33;1637435;87;20892;-77
2022/05/26 07:17:38;;;;;;;3.40;1.30;;;;;;;16.86;67.57;100783.98;1637944;85;21524;-77
2022/05/26 07:20:06;;;;;;;4.70;1.40;;;;;;;16.95;67.50;100783.62;1647330;86;20932;-77
2022/05/26 07:22:32;;;;;;;5.28;1.22;;;;;;;17.08;67.42;100786.59;1615340;87;21067;-77
2022/05/26 07:24:58;;;;;;;1.53;1.13;;;;;;;17.23;67.33;100777.26;1630107;87;21789;-77
2022/05/26 07:27:24;;;;;;;1.43;0.97;;;;;;;17.39;67.25;100776.56;1661390;85;21050;-77
2022/05/26 07:29:51;;;;;;;2.02;1.10;;;;;;;17.58;67.15;100775.34;1642390;85;21054;-77
2022/05/26 07:32:17;;;;;;;0.90;0.70;;;;;;;17.78;67.10;100771.42;1650296;85;21130;-77
2022/05/26 07:34:43;;;;;;;1.47;0.90;;;;;;;18.12;67.05;100764.25;1641052;85;21900;-77
2022/05/26 07:42:40;;;;;;;6.20;1.12;;;;;;;19.30;66.38;100762.58;1664390;85;20982;-78
2022/05/26 07:45:08;;;;;;;2.45;0.70;;;;;;;19.54;66.08;100756.13;1660230;85;21122;-78
2022/05/26 07:47:36;;;;;;;3.17;0.90;;;;;;;19.75;66.08;100759.44;1668179;85;21019;-78
2022/05/26 07:50:11;;;;;;;1.32;0.88;;;;;;;19.98;65.67;100760.84;1668338;85;21045;-78
2022/05/26 07:52:38;;;;;;;5.22;0.95;;;;;;;20.18;65.62;100760.62;1668474;85;21125;-78
2022/05/26 07:55:06;;;;;;;4.15;0.70;;;;;;;20.45;65.31;100755.20;1666778;85;21609;-78
2022/05/26 07:57:35;;;;;;;3.85;0.80;;;;;;;20.62;65.25;100767.42;1668517;85;21087;-78
2022/05/26 08:00:02;;;;;;;3.90;1.00;;;;;;;20.80;64.93;100761.58;1668468;84;21054;-78
2022/05/26 08:02:28;;;;;;;4.80;1.10;;;;;;;21.01;64.26;100764.31;1658292;85;21071;-78
2022/05/26 08:04:54;;;;;;;3.03;0.73;;;;;;;21.18;64.62;100760.72;1641399;86;21648;-78
2022/05/26 08:07:21;;;;;;;5.80;1.62;;;;;;;21.41;63.97;100762.87;1641460;85;21075;-78
2022/05/26 08:09:47;;;;;;;1.95;0.85;;;;;;;21.41;63.97;100762.87;1646503;85;21559;-78
2022/05/26 08:12:14;;;;;;;1.70;0.80;;;;;;;21.47;63.90;100756.41;1646813;85;21016;-78
2022/05/26 08:14:43;;;;;;;3.15;0.80;;;;;;;21.53;63.55;100759.98;1641288;85;21067;-78
2022/05/26 08:17:15;;;;;;;1.98;1.05;;;;;;;21.66;63.38;100748.27;1652571;85;21531;-78
2022/05/26 08:19:42;;;;;;;1.00;0.90;;;;;;;21.66;63.00;100750.43;1640692;85;21070;-78
2022/05/26 08:22:08;;;;;;;2.08;0.78;;;;;;;21.79;62.97;100764.55;1641053;86;21124;-78
2022/05/26 08:24:34;;;;;;;1.20;1.10;;;;;;;21.90;62.58;100772.24;1641219;85;21062;-78
2022/05/26 08:27:02;;;;;;;1.80;0.95;;;;;;;21.97;62.39;100774.41;1640581;85;32678;-77
2022/05/26 08:29:31;;;;;;;5.20;1.00;;;;;;;22.03;61.78;100775.39;1640815;85;21502;-77
2022/05/26 08:31:58;;;;;;;2.80;1.42;;;;;;;22.06;61.77;100769.94;1651103;85;24466;-77
2022/05/26 08:34:24;;;;;;;3.30;1.10;;;;;;;22.15;61.09;100773.80;1668482;85;21055;-77
2022/05/26 08:36:50;;;;;;;7.55;0.88;;;;;;;22.23;60.71;100768.90;1673514;85;20959;-77
2022/05/26 08:39:17;;;;;;;1.97;1.00;;;;;;;22.27;60.57;100776.14;1649326;85;20920;-77
2022/05/26 08:41:47;;;;;;;1.10;0.80;;;;;;;22.24;60.38;100763.16;1665000;85;21087;-79
2022/05/26 08:44:22;;;;;;;4.83;1.10;;;;;;;22.41;60.28;100755.86;1651516;85;20920;-79
2022/05/26 08:46:54;;;;;;;2.08;1.00;;;;;;;22.50;59.80;100765.45;1659395;85;20940;-78
2022/05/26 08:49:48;;;;;;;4.28;1.20;;;;;;;22.49;59.28;100765.92;1621606;86;20942;-78
2022/05/26 08:52:23;;;;;;;1.60;0.90;;;;;;;22.47;59.29;100765.17;1622113;87;20961;-78
2022/05/26 08:54:54;;;;;;;;;;;;;;;22.64;58.97;100773.34;1619280;87;20957;-78
2022/05/26 08:57:29;;;;;;;2.27;0.88;;;;;;;22.58;58.00;100773.25;1633349;86;20159;-78
2022/05/26 08:59:56;;;;;;;1.98;1.10;;;;;;;22.20;58.08;100775.67;1634524;85;20957;-78
2022/05/26 09:02:29;;;;;;;2.80;1.02;;;;;;;21.92;57.91;100784.38;1630665;87;20981;-77
2022/05/26 09:05:03;;;;;;;2.37;1.07;;;;;;;21.73;57.86;100778.55;1640002;87;20897;-77
2022/05/26 09:13:16;;;;;;;3.70;1.07;;;;;;;21.75;57.12;100766.98;1604700;88;21648;-77
2022/05/26 09:15:43;;;;;;;;;;;;;;;21.84;56.80;100772.14;1602132;88;21155;-77
2022/05/26 09:18:17;;;;;;;1.92;0.88;;;;;;;21.65;56.11;100768.94;1638626;86;20187;-77
2022/05/26 09:20:47;;;;;;;2.45;1.15;;;;;;;21.50;56.51;100765.90;1664098;85;21491;-77
2022/05/26 09:23:24;;;;;;;2.55;1.10;;;;;;;21.35;55.70;100775.53;1641012;85;21456;-77
2022/05/26 09:26:04;;;;;;;1.25;0.70;;;;;;;21.17;55.79;100766.92;1641181;86;21063;-77
2022/05/26 09:28:41;;;;;;;2.98;0.68;;;;;;;20.98;55.83;100764.48;1650974;85;21046;-77
2022/05/26 09:31:25;;;;;;;7.53;0.93;;;;;;;20.86;55.76;100762.55;1647324;85;20983;-77
2022/05/26 09:34:08;;;;;;;2.90;0.80;;;;;;;20.75;55.47;100771.53;1625654;87;21062;-77
2022/05/26 09:36:49;;;;;;;1.65;0.78;;;;;;;20.56;55.00;100783.98;1661691;84;21111;-76
2022/05/26 09:39:26;;;;;;;0.80;0.60;;;;;;;20.27;55.15;100783.77;1638563;87;21096;-76
2022/05/26 09:41:56;;;;;;;2.42;0.70;;;;;;;20.01;54.71;100789.09;1639389;86;21135;-76
2022/05/26 09:44:46;;;;;;;1.05;0.78;;;;;;;19.83;54.91;100792.66;1603618;88;21111;-76
2022/05/26 09:47:37;;;;;;;1.80;0.90;;;;;;;19.75;54.97;100785.67;1641711;86;21016;-76
2022/05/26 09:50:12;;;;;;;1.07;0.60;;;;;;;19.77;54.88;100786.41;1649903;86;21058;-77
2022/05/26 09:52:51;;;;;;;4.45;0.80;;;;;;;19.84;54.77;100791.27;1647275;85;21107;-77
2022/05/26 09:55:26;;;;;;;1.85;0.70;;;;;;;20.00;54.61;100784.77;1668288;85;21020;-77
2022/05/26 09:58:11;;;;;;;0.75;0.55;;;;;;;20.21;54.74;100777.53;1627786;86;21157;-77
2022/05/26 10:00:47;;;;;;;5.90;0.70;;;;;;;20.48;54.54;100786.56;1662423;85;21095;-77
2022/05/26 10:03:43;;;;;;;0.90;0.68;;;;;;;20.72;54.58;100787.00;1673499;85;21082;-77
2022/05/26 10:06:32;;;;;;;5.17;0.85;;;;;;;20.90;54.38;100798.72;1667103;85;21047;-76
2022/05/26 10:09:28;;;;;;;1.92;0.82;;;;;;;20.90;53.73;100810.08;1639895;85;21122;-77
2022/05/26 10:12:36;;;;;;;1.30;0.93;;;;;;;20.84;53.54;100784.12;1641394;85;21070;-77
2022/05/26 10:15:15;;;;;;;8.15;1.10;;;;;;;20.83;53.90;100808.25;1667645;85;21055;-77
2022/05/26 10:18:13;;;;;;;1.95;0.62;;;;;;;20.67;53.35;100806.58;1668305;85;21135;-77
2022/05/26 10:21:03;;;;;;;2.25;0.95;;;;;;;20.43;53.45;100810.07;1661291;85;21123;-78
2022/05/26 10:23:47;;;;;;;3.50;1.50;;;;;;;20.16;53.23;100818.94;1640742;85;21119;-77
2022/05/26 10:26:31;;;;;;;4.28;1.10;;;;;;;19.79;53.40;100840.98;1640670;87;21126;-77
2022/05/26 10:29:43;;;;;;;2.10;0.88;;;;;;;19.41;53.52;100862.55;1659043;85;21400;-76
2022/05/26 10:32:17;;;;;;;1.02;0.80;;;;;;;18.87;53.50;100873.44;1614207;88;20945;-76
2022/05/26 10:34:51;;;;;;;5.67;1.00;;;;;;;18.40;54.03;100871.18;1607737;88;20984;-76
2022/05/26 10:37:47;;;;;;;1.72;0.72;;;;;;;18.16;54.30;100868.35;1597021;88;20989;-76
2022/05/26 10:40:21;;;;;;;1.12;1.00;;;;;;;18.08;54.61;100866.06;1615416;87;20913;-77
2022/05/26 10:43:14;;;;;;;1.17;0.90;;;;;;;18.04;54.72;100864.50;1589917;87;20941;-77
2022/05/26 10:45:48;;;;;;;1.12;0.90;;;;;;;18.16;55.02;100854.80;1600678;88;21063;-77
2022/05/26 10:48:46;;;;;;;1.92;0.70;;;;;;;18.36;55.25;100851.28;1658756;85;20923;-77
2022/05/26 10:51:21;;;;;;;2.83;1.00;;;;;;;18.53;55.36;100856.63;1664517;85;20916;-77
2022/05/26 10:54:11;;;;;;;1.92;1.00;;;;;;;18.72;55.46;100850.55;1670117;85;20908;-78
2022/05/26 10:57:01;;;;;;;2.15;1.00;;;;;;;18.81;55.55;100847.51;1667357;85;21444;-78
2022/05/26 10:59:50;;;;;;;3.72;1.20;;;;;;;18.94;55.75;100850.41;1668060;84;21604;-77
2022/05/26 11:02:29;;;;;;;3.17;1.40;;;;;;;19.08;55.89;100846.69;1637004;86;21096;-77
2022/05/26 11:05:08;;;;;;;3.92;1.30;;;;;;;19.17;55.98;100832.67;1616467;87;21112;-77
2022/05/26 11:07:58;;;;;;;4.22;0.55;;;;;;;19.41;56.20;100827.14;1624289;86;21596;-77
2022/05/26 11:10:38;;;;;;;0.70;0.40;;;;;;;19.59;56.09;100836.76;1594970;89;21075;-77
2022/05/26 11:13:31;;;;;;;1.47;0.50;;;;;;;19.65;56.00;100827.27;1595722;89;21079;-77
2022/05/26 11:19:36;;;;;;;4.25;0.68;;;;;;;19.68;55.88;100832.83;1612087;88;21144;-77
2022/05/26 11:22:05;;;;;;;1.57;0.42;;;;;;;19.66;55.74;100828.12;1620480;87;21088;-77
2022/05/26 11:24:33;;;;;;;4.60;0.60;;;;;;;19.66;55.70;100838.61;1606581;87;21080;-77
2022/05/26 11:27:19;;;;;;;1.27;0.65;;;;;;;19.69;55.65;100838.46;1588002;88;21158;-77
2022/05/26 11:29:59;;;;;;;1.57;0.60;;;;;;;19.77;55.80;100824.46;1605381;86;21092;-77
2022/05/26 11:38:35;;;;;;;0.95;0.50;;;;;;;20.08;55.38;100812.78;1576704;89;21119;-77
2022/05/26 11:41:09;;;;;;;0.40;0.40;;;;;;;20.17;55.46;100820.64;1576104;89;21088;-77
2022/05/26 11:43:57;;;;;;;1.65;0.50;;;;;;;20.30;55.26;100824.75;1595547;89;21157;-77
2022/05/26 11:46:49;;;;;;;2.15;0.30;;;;;;;20.36;55.14;100831.84;1640143;86;21045;-78
2022/05/26 11:49:46;;;;;;;2.15;0.40;;;;;;;20.35;54.93;100833.23;1574167;88;21088;-77
2022/05/26 11:52:27;;;;;;;3.02;0.80;;;;;;;20.28;54.83;100823.52;1603154;86;21140;-78
2022/05/26 11:55:02;;;;;;;2.27;0.70;;;;;;;20.34;54.64;100809.22;1575888;89;21132;-78
2022/05/26 11:57:45;;;;;;;0.85;0.47;;;;;;;20.34;54.80;100812.69;1606940;89;21074;-78
2022/05/26 12:00:23;;;;;;;1.90;0.62;;;;;;;20.33;54.42;100818.88;1590609;88;21608;-78
2022/05/26 12:03:13;;;;;;;4.53;0.70;;;;;;;20.26;54.36;100812.74;1609235;89;21068;-78
2022/05/26 12:05:43;;;;;;;3.90;0.60;;;;;;;20.23;54.22;100807.66;1609982;88;21128;-78
2022/05/26 12:08:27;;;;;;;1.27;0.53;;;;;;;20.16;54.15;100820.26;1609753;87;21160;-78
2022/05/26 12:11:06;;;;;;;2.62;1.07;;;;;;;20.14;54.14;100814.23;1596061;89;21144;-78
2022/05/26 12:13:39;;;;;;;2.40;0.90;;;;;;;20.21;54.20;100810.83;1616948;88;20993;-79
2022/05/26 12:16:19;;;;;;;3.40;1.25;;;;;;;20.25;54.10;100801.86;1605958;87;21076;-78
2022/05/26 12:18:52;;;;;;;3.87;0.50;;;;;;;20.31;53.81;100802.81;1613472;88;21092;-78
2022/05/26 12:21:42;;;;;;;1.25;0.70;;;;;;;20.36;53.79;100800.79;1620784;87;21100;-78
2022/05/26 12:24:37;;;;;;;1.80;0.90;;;;;;;20.43;53.61;100805.66;1606971;87;21094;-78
2022/05/26 12:27:04;;;;;;;2.37;0.82;;;;;;;20.61;53.93;100796.41;1631500;87;21067;-78
2022/05/26 12:29:59;;;;;;;1.72;0.80;;;;;;;20.87;53.84;100787.91;1653006;85;20983;-78
2022/05/26 12:32:32;;;;;;;0.98;0.60;;;;;;;21.05;53.45;100793.91;1638913;86;21087;-78
2022/05/26 12:35:29;;;;;;;3.15;0.70;;;;;;;21.10;53.40;100788.77;1658166;86;21123;-79
2022/05/26 12:38:33;;;;;;;5.28;2.10;;;;;;;21.13;53.13;100795.17;1655665;86;21548;-78
2022/05/26 12:41:26;;;;;;;4.08;1.15;;;;;;;21.06;53.29;100782.46;1658063;86;21099;-77
2022/05/26 12:44:25;;;;;;;1.15;0.68;;;;;;;20.96;53.01;100795.28;1646704;85;21260;-77